sensor_id;sensor_type;location;lat;lon;timestamp;P1;durP1;ratioP1;P2;durP2;ratioP2
81382;SDS011;70834;37.534;-122.308;2023-07-13T00:01:53;12.02;;;2.53;;
81382;SDS011;70834;37.534;-122.308;2023-07-13T00:04:16;9.63;;;2.13;;
81382;SDS011;70834;37.534;-122.308;2023-07-13T00:06:39;9.05;;;2.22;;
81382;SDS011;70834;37.534;-122.308;2023-07-13T00:09:00;32.25;;;3.03;;
81382;SDS011;70834;37.534;-122.308;2023-07-13T00:11:21;98.05;;;6.57;;
81382;SDS011;70834;37.534;-122.308;2023-07-13T00:13:43;54.95;;;4.25;;
81382;SDS011;70834;37.534;-122.308;2023-07-13T00:16:05;11.27;;;2.05;;
81382;SDS011;70834;37.534;-122.308;2023-07-13T00:18:27;5.50;;;2.42;;
81382;SDS011;70834;37.534;-122.308;2023-07-13T00:20:50;5.97;;;2.17;;
81382;SDS011;70834;37.534;-122.308;2023-07-13T00:23:11;6.28;;;1.95;;
81382;SDS011;70834;37.534;-122.308;2023-07-13T00:25:33;11.68;;;2.20;;
81382;SDS011;70834;37.534;-122.308;2023-07-13T00:27:55;4.70;;;2.10;;
81382;SDS011;70834;37.534;-122.308;2023-07-13T00:30:16;6.32;;;2.65;;
81382;SDS011;70834;37.534;-122.308;2023-07-13T00:32:38;7.95;;;2.60;;
81382;SDS011;70834;37.534;-122.308;2023-07-13T00:34:59;4.18;;;2.30;;
81382;SDS011;70834;37.534;-122.308;2023-07-13T00:37:21;5.30;;;2.78;;
81382;SDS011;70834;37.534;-122.308;2023-07-13T00:39:42;7.55;;;2.80;;
81382;SDS011;70834;37.534;-122.308;2023-07-13T00:42:04;5.93;;;2.58;;
81382;SDS011;70834;37.534;-122.308;2023-07-13T00:44:26;8.25;;;2.60;;
81382;SDS011;70834;37.534;-122.308;2023-07-13T00:46:48;7.80;;;2.50;;
81382;SDS011;70834;37.534;-122.308;2023-07-13T00:49:12;6.60;;;2.90;;
81382;SDS011;70834;37.534;-122.308;2023-07-13T00:51:39;5.85;;;2.20;;
81382;SDS011;70834;37.534;-122.308;2023-07-13T00:54:05;6.55;;;3.13;;
81382;SDS011;70834;37.534;-122.308;2023-07-13T00:56:30;5.80;;;2.00;;
81382;SDS011;70834;37.534;-122.308;2023-07-13T00:58:53;8.68;;;2.40;;
81382;SDS011;70834;37.534;-122.308;2023-07-13T01:01:15;4.88;;;2.13;;
81382;SDS011;70834;37.534;-122.308;2023-07-13T01:03:37;9.63;;;2.78;;
81382;SDS011;70834;37.534;-122.308;2023-07-13T01:06:00;7.57;;;2.83;;
81382;SDS011;70834;37.534;-122.308;2023-07-13T01:08:22;10.02;;;3.00;;
81382;SDS011;70834;37.534;-122.308;2023-07-13T01:10:54;6.72;;;2.35;;
81382;SDS011;70834;37.534;-122.308;2023-07-13T01:13:16;7.75;;;2.75;;
81382;SDS011;70834;37.534;-122.308;2023-07-13T01:18:01;5.47;;;2.30;;
81382;SDS011;70834;37.534;-122.308;2023-07-13T01:20:27;7.95;;;2.97;;
81382;SDS011;70834;37.534;-122.308;2023-07-13T01:22:49;8.20;;;3.20;;
81382;SDS011;70834;37.534;-122.308;2023-07-13T01:25:11;7.20;;;3.20;;
81382;SDS011;70834;37.534;-122.308;2023-07-13T01:27:32;7.47;;;3.30;;
81382;SDS011;70834;37.534;-122.308;2023-07-13T01:29:54;5.88;;;2.60;;
81382;SDS011;70834;37.534;-122.308;2023-07-13T01:32:23;7.75;;;3.22;;
81382;SDS011;70834;37.534;-122.308;2023-07-13T01:34:45;6.95;;;3.03;;
81382;SDS011;70834;37.534;-122.308;2023-07-13T01:37:07;7.13;;;2.17;;
81382;SDS011;70834;37.534;-122.308;2023-07-13T01:39:29;5.03;;;2.03;;
81382;SDS011;70834;37.534;-122.308;2023-07-13T01:41:52;7.95;;;2.55;;
81382;SDS011;70834;37.534;-122.308;2023-07-13T01:44:13;7.05;;;3.00;;
81382;SDS011;70834;37.534;-122.308;2023-07-13T01:46:34;9.38;;;3.53;;
81382;SDS011;70834;37.534;-122.308;2023-07-13T01:48:56;4.63;;;2.20;;
81382;SDS011;70834;37.534;-122.308;2023-07-13T01:51:17;8.68;;;2.85;;
81382;SDS011;70834;37.534;-122.308;2023-07-13T01:53:39;7.97;;;2.50;;
81382;SDS011;70834;37.534;-122.308;2023-07-13T01:56:01;6.55;;;2.58;;
81382;SDS011;70834;37.534;-122.308;2023-07-13T01:58:22;11.00;;;3.03;;
81382;SDS011;70834;37.534;-122.308;2023-07-13T02:00:44;4.82;;;2.38;;
81382;SDS011;70834;37.534;-122.308;2023-07-13T02:03:08;8.05;;;2.70;;
81382;SDS011;70834;37.534;-122.308;2023-07-13T02:05:29;7.53;;;2.58;;
81382;SDS011;70834;37.534;-122.308;2023-07-13T02:07:51;4.93;;;2.30;;
81382;SDS011;70834;37.534;-122.308;2023-07-13T02:10:13;9.38;;;2.75;;
81382;SDS011;70834;37.534;-122.308;2023-07-13T02:12:35;5.47;;;2.63;;
81382;SDS011;70834;37.534;-122.308;2023-07-13T02:14:57;8.35;;;2.80;;
81382;SDS011;70834;37.534;-122.308;2023-07-13T02:17:19;5.47;;;2.50;;
81382;SDS011;70834;37.534;-122.308;2023-07-13T02:19:40;5.43;;;2.63;;
81382;SDS011;70834;37.534;-122.308;2023-07-13T02:22:02;6.78;;;3.00;;
81382;SDS011;70834;37.534;-122.308;2023-07-13T02:24:24;9.63;;;3.28;;
81382;SDS011;70834;37.534;-122.308;2023-07-13T02:26:45;7.72;;;2.70;;
81382;SDS011;70834;37.534;-122.308;2023-07-13T02:29:07;8.20;;;2.78;;
81382;SDS011;70834;37.534;-122.308;2023-07-13T02:31:28;7.68;;;2.53;;
81382;SDS011;70834;37.534;-122.308;2023-07-13T02:33:49;6.25;;;3.17;;
81382;SDS011;70834;37.534;-122.308;2023-07-13T02:36:11;6.80;;;2.78;;
81382;SDS011;70834;37.534;-122.308;2023-07-13T02:38:34;8.27;;;3.25;;
81382;SDS011;70834;37.534;-122.308;2023-07-13T02:40:56;9.48;;;3.05;;
81382;SDS011;70834;37.534;-122.308;2023-07-13T02:43:18;7.90;;;2.58;;
81382;SDS011;70834;37.534;-122.308;2023-07-13T02:45:43;7.93;;;2.75;;
81382;SDS011;70834;37.534;-122.308;2023-07-13T02:48:05;8.50;;;2.60;;
81382;SDS011;70834;37.534;-122.308;2023-07-13T02:50:26;9.38;;;3.25;;
81382;SDS011;70834;37.534;-122.308;2023-07-13T02:52:47;7.45;;;2.85;;
81382;SDS011;70834;37.534;-122.308;2023-07-13T02:55:09;8.70;;;3.03;;
81382;SDS011;70834;37.534;-122.308;2023-07-13T02:57:30;12.77;;;3.50;;
81382;SDS011;70834;37.534;-122.308;2023-07-13T02:59:53;9.43;;;3.17;;
81382;SDS011;70834;37.534;-122.308;2023-07-13T03:02:15;13.60;;;3.85;;
81382;SDS011;70834;37.534;-122.308;2023-07-13T03:04:36;10.23;;;3.17;;
81382;SDS011;70834;37.534;-122.308;2023-07-13T03:06:58;8.55;;;3.22;;
81382;SDS011;70834;37.534;-122.308;2023-07-13T03:09:19;8.65;;;3.40;;
81382;SDS011;70834;37.534;-122.308;2023-07-13T03:11:41;10.30;;;3.20;;
81382;SDS011;70834;37.534;-122.308;2023-07-13T03:14:02;10.32;;;3.30;;
81382;SDS011;70834;37.534;-122.308;2023-07-13T03:16:24;10.38;;;3.95;;
81382;SDS011;70834;37.534;-122.308;2023-07-13T03:18:46;10.07;;;4.05;;
81382;SDS011;70834;37.534;-122.308;2023-07-13T03:21:07;7.38;;;3.17;;
81382;SDS011;70834;37.534;-122.308;2023-07-13T03:23:29;10.70;;;3.38;;
81382;SDS011;70834;37.534;-122.308;2023-07-13T03:26:00;6.85;;;2.70;;
81382;SDS011;70834;37.534;-122.308;2023-07-13T03:28:29;9.25;;;3.50;;
81382;SDS011;70834;37.534;-122.308;2023-07-13T03:30:58;6.82;;;3.40;;
81382;SDS011;70834;37.534;-122.308;2023-07-13T03:33:27;10.27;;;3.40;;
81382;SDS011;70834;37.534;-122.308;2023-07-13T03:35:49;9.63;;;3.00;;
81382;SDS011;70834;37.534;-122.308;2023-07-13T03:38:10;6.50;;;2.70;;
81382;SDS011;70834;37.534;-122.308;2023-07-13T03:40:31;7.57;;;2.63;;
81382;SDS011;70834;37.534;-122.308;2023-07-13T03:42:53;9.68;;;3.00;;
81382;SDS011;70834;37.534;-122.308;2023-07-13T03:45:15;7.43;;;2.75;;
81382;SDS011;70834;37.534;-122.308;2023-07-13T03:50:16;8.38;;;2.75;;
81382;SDS011;70834;37.534;-122.308;2023-07-13T03:52:37;5.68;;;2.67;;
81382;SDS011;70834;37.534;-122.308;2023-07-13T03:54:59;8.65;;;2.85;;
81382;SDS011;70834;37.534;-122.308;2023-07-13T03:57:20;7.68;;;2.95;;
81382;SDS011;70834;37.534;-122.308;2023-07-13T03:59:42;7.70;;;2.28;;
81382;SDS011;70834;37.534;-122.308;2023-07-13T04:02:04;8.07;;;2.95;;
81382;SDS011;70834;37.534;-122.308;2023-07-13T04:04:25;8.73;;;3.10;;
81382;SDS011;70834;37.534;-122.308;2023-07-13T04:06:46;7.88;;;3.15;;
81382;SDS011;70834;37.534;-122.308;2023-07-13T04:09:08;10.55;;;3.25;;
81382;SDS011;70834;37.534;-122.308;2023-07-13T04:11:30;7.55;;;3.25;;
81382;SDS011;70834;37.534;-122.308;2023-07-13T04:13:52;6.97;;;2.97;;
81382;SDS011;70834;37.534;-122.308;2023-07-13T04:16:14;4.57;;;2.63;;
81382;SDS011;70834;37.534;-122.308;2023-07-13T04:18:36;8.70;;;3.40;;
81382;SDS011;70834;37.534;-122.308;2023-07-13T04:20:58;8.10;;;2.60;;
81382;SDS011;70834;37.534;-122.308;2023-07-13T04:23:19;5.43;;;2.58;;
81382;SDS011;70834;37.534;-122.308;2023-07-13T04:25:47;7.18;;;2.47;;
81382;SDS011;70834;37.534;-122.308;2023-07-13T04:28:09;5.72;;;2.17;;
81382;SDS011;70834;37.534;-122.308;2023-07-13T04:30:31;4.03;;;2.33;;
81382;SDS011;70834;37.534;-122.308;2023-07-13T04:32:52;4.90;;;2.30;;
81382;SDS011;70834;37.534;-122.308;2023-07-13T04:35:14;5.15;;;2.00;;
81382;SDS011;70834;37.534;-122.308;2023-07-13T04:37:35;3.90;;;1.95;;
81382;SDS011;70834;37.534;-122.308;2023-07-13T04:39:57;5.45;;;2.30;;
81382;SDS011;70834;37.534;-122.308;2023-07-13T04:42:18;5.90;;;2.67;;
81382;SDS011;70834;37.534;-122.308;2023-07-13T04:44:40;5.85;;;2.20;;
81382;SDS011;70834;37.534;-122.308;2023-07-13T04:47:01;7.07;;;2.35;;
81382;SDS011;70834;37.534;-122.308;2023-07-13T04:49:23;4.70;;;2.67;;
81382;SDS011;70834;37.534;-122.308;2023-07-13T04:51:44;7.80;;;2.38;;
81382;SDS011;70834;37.534;-122.308;2023-07-13T04:54:05;6.25;;;2.65;;
81382;SDS011;70834;37.534;-122.308;2023-07-13T04:56:28;5.22;;;2.30;;
81382;SDS011;70834;37.534;-122.308;2023-07-13T04:58:50;6.75;;;2.55;;
81382;SDS011;70834;37.534;-122.308;2023-07-13T05:01:32;4.43;;;2.53;;
81382;SDS011;70834;37.534;-122.308;2023-07-13T05:03:53;5.68;;;2.78;;
81382;SDS011;70834;37.534;-122.308;2023-07-13T05:06:17;5.82;;;2.42;;
81382;SDS011;70834;37.534;-122.308;2023-07-13T05:08:39;4.80;;;2.22;;
81382;SDS011;70834;37.534;-122.308;2023-07-13T05:11:01;5.00;;;2.53;;
81382;SDS011;70834;37.534;-122.308;2023-07-13T05:13:24;8.73;;;2.80;;
81382;SDS011;70834;37.534;-122.308;2023-07-13T05:15:47;7.20;;;2.17;;
81382;SDS011;70834;37.534;-122.308;2023-07-13T05:18:16;7.03;;;2.40;;
81382;SDS011;70834;37.534;-122.308;2023-07-13T05:20:37;7.07;;;2.85;;
81382;SDS011;70834;37.534;-122.308;2023-07-13T05:22:59;6.95;;;2.30;;
81382;SDS011;70834;37.534;-122.308;2023-07-13T05:25:20;6.80;;;2.47;;
81382;SDS011;70834;37.534;-122.308;2023-07-13T05:27:42;3.67;;;2.20;;
81382;SDS011;70834;37.534;-122.308;2023-07-13T05:30:06;7.45;;;2.38;;
81382;SDS011;70834;37.534;-122.308;2023-07-13T05:32:31;6.75;;;2.28;;
81382;SDS011;70834;37.534;-122.308;2023-07-13T05:34:53;5.93;;;2.30;;
81382;SDS011;70834;37.534;-122.308;2023-07-13T05:37:15;7.82;;;3.58;;
81382;SDS011;70834;37.534;-122.308;2023-07-13T05:39:36;9.02;;;2.70;;
81382;SDS011;70834;37.534;-122.308;2023-07-13T05:41:58;4.60;;;1.88;;
81382;SDS011;70834;37.534;-122.308;2023-07-13T05:44:19;7.30;;;2.55;;
81382;SDS011;70834;37.534;-122.308;2023-07-13T05:46:41;4.25;;;2.15;;
81382;SDS011;70834;37.534;-122.308;2023-07-13T05:49:02;5.57;;;1.73;;
81382;SDS011;70834;37.534;-122.308;2023-07-13T05:51:23;5.88;;;2.53;;
81382;SDS011;70834;37.534;-122.308;2023-07-13T05:53:45;6.32;;;2.05;;
81382;SDS011;70834;37.534;-122.308;2023-07-13T05:56:06;6.32;;;2.25;;
81382;SDS011;70834;37.534;-122.308;2023-07-13T05:58:28;5.85;;;2.03;;
81382;SDS011;70834;37.534;-122.308;2023-07-13T06:00:57;4.57;;;2.25;;
81382;SDS011;70834;37.534;-122.308;2023-07-13T06:03:21;3.53;;;1.90;;
81382;SDS011;70834;37.534;-122.308;2023-07-13T06:05:42;6.65;;;2.15;;
81382;SDS011;70834;37.534;-122.308;2023-07-13T06:08:04;5.32;;;2.08;;
81382;SDS011;70834;37.534;-122.308;2023-07-13T06:10:27;7.03;;;2.10;;
81382;SDS011;70834;37.534;-122.308;2023-07-13T06:12:48;5.57;;;2.00;;
81382;SDS011;70834;37.534;-122.308;2023-07-13T06:15:10;5.10;;;1.80;;
81382;SDS011;70834;37.534;-122.308;2023-07-13T06:17:31;4.95;;;2.22;;
81382;SDS011;70834;37.534;-122.308;2023-07-13T06:19:53;5.82;;;2.45;;
81382;SDS011;70834;37.534;-122.308;2023-07-13T06:22:14;7.30;;;2.65;;
81382;SDS011;70834;37.534;-122.308;2023-07-13T06:24:36;6.15;;;2.47;;
81382;SDS011;70834;37.534;-122.308;2023-07-13T06:26:57;11.77;;;2.30;;
81382;SDS011;70834;37.534;-122.308;2023-07-13T06:29:18;5.80;;;2.47;;
81382;SDS011;70834;37.534;-122.308;2023-07-13T06:31:40;5.07;;;2.75;;
81382;SDS011;70834;37.534;-122.308;2023-07-13T06:34:01;6.07;;;2.33;;
81382;SDS011;70834;37.534;-122.308;2023-07-13T06:36:23;7.05;;;2.47;;
81382;SDS011;70834;37.534;-122.308;2023-07-13T06:38:44;6.03;;;2.15;;
81382;SDS011;70834;37.534;-122.308;2023-07-13T06:41:06;5.75;;;2.95;;
81382;SDS011;70834;37.534;-122.308;2023-07-13T06:43:28;10.88;;;3.13;;
81382;SDS011;70834;37.534;-122.308;2023-07-13T06:45:53;6.47;;;2.58;;
81382;SDS011;70834;37.534;-122.308;2023-07-13T06:48:16;7.47;;;2.60;;
81382;SDS011;70834;37.534;-122.308;2023-07-13T06:50:39;5.25;;;2.25;;
81382;SDS011;70834;37.534;-122.308;2023-07-13T06:53:01;7.53;;;2.67;;
81382;SDS011;70834;37.534;-122.308;2023-07-13T06:55:23;6.75;;;2.20;;
81382;SDS011;70834;37.534;-122.308;2023-07-13T06:57:44;6.38;;;2.28;;
81382;SDS011;70834;37.534;-122.308;2023-07-13T07:00:06;6.05;;;2.42;;
81382;SDS011;70834;37.534;-122.308;2023-07-13T07:02:30;5.60;;;1.95;;
81382;SDS011;70834;37.534;-122.308;2023-07-13T07:04:51;4.07;;;2.08;;
81382;SDS011;70834;37.534;-122.308;2023-07-13T07:07:14;8.40;;;2.92;;
81382;SDS011;70834;37.534;-122.308;2023-07-13T07:09:36;3.40;;;1.90;;
81382;SDS011;70834;37.534;-122.308;2023-07-13T07:11:57;5.68;;;2.70;;
81382;SDS011;70834;37.534;-122.308;2023-07-13T07:14:18;7.70;;;2.05;;
81382;SDS011;70834;37.534;-122.308;2023-07-13T07:16:40;4.82;;;1.80;;
81382;SDS011;70834;37.534;-122.308;2023-07-13T07:19:02;4.93;;;1.80;;
81382;SDS011;70834;37.534;-122.308;2023-07-13T07:21:23;4.78;;;1.50;;
81382;SDS011;70834;37.534;-122.308;2023-07-13T07:23:46;5.18;;;1.73;;
81382;SDS011;70834;37.534;-122.308;2023-07-13T07:26:07;3.78;;;1.67;;
81382;SDS011;70834;37.534;-122.308;2023-07-13T07:28:30;4.10;;;1.80;;
81382;SDS011;70834;37.534;-122.308;2023-07-13T07:30:55;6.72;;;1.73;;
81382;SDS011;70834;37.534;-122.308;2023-07-13T07:35:40;4.20;;;1.70;;
81382;SDS011;70834;37.534;-122.308;2023-07-13T07:38:01;6.15;;;1.95;;
81382;SDS011;70834;37.534;-122.308;2023-07-13T07:40:23;5.20;;;1.70;;
81382;SDS011;70834;37.534;-122.308;2023-07-13T07:42:44;5.00;;;1.92;;
81382;SDS011;70834;37.534;-122.308;2023-07-13T07:45:06;5.82;;;1.58;;
81382;SDS011;70834;37.534;-122.308;2023-07-13T07:47:28;5.38;;;2.05;;
81382;SDS011;70834;37.534;-122.308;2023-07-13T07:49:49;3.20;;;1.45;;
81382;SDS011;70834;37.534;-122.308;2023-07-13T07:52:11;3.80;;;1.50;;
81382;SDS011;70834;37.534;-122.308;2023-07-13T07:54:32;3.78;;;2.05;;
81382;SDS011;70834;37.534;-122.308;2023-07-13T07:56:54;3.13;;;1.52;;
81382;SDS011;70834;37.534;-122.308;2023-07-13T07:59:15;5.40;;;2.47;;
81382;SDS011;70834;37.534;-122.308;2023-07-13T08:01:37;5.25;;;1.73;;
81382;SDS011;70834;37.534;-122.308;2023-07-13T08:03:58;3.00;;;1.90;;
81382;SDS011;70834;37.534;-122.308;2023-07-13T08:06:20;4.07;;;2.00;;
81382;SDS011;70834;37.534;-122.308;2023-07-13T08:08:42;4.68;;;1.80;;
81382;SDS011;70834;37.534;-122.308;2023-07-13T08:11:04;3.15;;;1.67;;
81382;SDS011;70834;37.534;-122.308;2023-07-13T08:13:27;4.55;;;1.80;;
81382;SDS011;70834;37.534;-122.308;2023-07-13T08:15:48;3.30;;;1.80;;
81382;SDS011;70834;37.534;-122.308;2023-07-13T08:18:10;4.63;;;1.58;;
81382;SDS011;70834;37.534;-122.308;2023-07-13T08:20:31;6.20;;;1.58;;
81382;SDS011;70834;37.534;-122.308;2023-07-13T08:22:53;5.80;;;1.30;;
81382;SDS011;70834;37.534;-122.308;2023-07-13T08:25:15;3.30;;;1.27;;
81382;SDS011;70834;37.534;-122.308;2023-07-13T08:27:36;5.68;;;1.48;;
81382;SDS011;70834;37.534;-122.308;2023-07-13T08:29:58;4.30;;;1.55;;
81382;SDS011;70834;37.534;-122.308;2023-07-13T08:32:20;4.85;;;1.65;;
81382;SDS011;70834;37.534;-122.308;2023-07-13T08:34:43;3.33;;;1.65;;
81382;SDS011;70834;37.534;-122.308;2023-07-13T08:37:04;5.30;;;1.65;;
81382;SDS011;70834;37.534;-122.308;2023-07-13T08:39:26;5.25;;;1.45;;
81382;SDS011;70834;37.534;-122.308;2023-07-13T08:41:49;3.00;;;1.48;;
81382;SDS011;70834;37.534;-122.308;2023-07-13T08:45:00;5.03;;;2.25;;
81382;SDS011;70834;37.534;-122.308;2023-07-13T08:47:21;4.72;;;1.48;;
81382;SDS011;70834;37.534;-122.308;2023-07-13T08:49:44;5.28;;;1.52;;
81382;SDS011;70834;37.534;-122.308;2023-07-13T08:52:09;5.57;;;1.92;;
81382;SDS011;70834;37.534;-122.308;2023-07-13T08:54:50;4.93;;;1.50;;
81382;SDS011;70834;37.534;-122.308;2023-07-13T08:57:19;8.18;;;2.10;;
81382;SDS011;70834;37.534;-122.308;2023-07-13T08:59:45;4.93;;;1.73;;
81382;SDS011;70834;37.534;-122.308;2023-07-13T09:10:15;5.10;;;1.80;;
81382;SDS011;70834;37.534;-122.308;2023-07-13T09:12:53;5.45;;;1.98;;
81382;SDS011;70834;37.534;-122.308;2023-07-13T09:15:32;3.83;;;1.60;;
81382;SDS011;70834;37.534;-122.308;2023-07-13T09:18:21;5.07;;;1.60;;
81382;SDS011;70834;37.534;-122.308;2023-07-13T09:20:57;7.45;;;1.92;;
81382;SDS011;70834;37.534;-122.308;2023-07-13T09:23:23;4.20;;;1.80;;
81382;SDS011;70834;37.534;-122.308;2023-07-13T09:25:51;5.35;;;2.08;;
81382;SDS011;70834;37.534;-122.308;2023-07-13T09:28:17;5.53;;;1.50;;
81382;SDS011;70834;37.534;-122.308;2023-07-13T09:30:51;4.53;;;1.63;;
81382;SDS011;70834;37.534;-122.308;2023-07-13T09:33:22;5.65;;;1.50;;
81382;SDS011;70834;37.534;-122.308;2023-07-13T09:35:43;4.10;;;1.50;;
81382;SDS011;70834;37.534;-122.308;2023-07-13T09:38:14;6.35;;;1.50;;
81382;SDS011;70834;37.534;-122.308;2023-07-13T09:40:40;6.32;;;2.15;;
81382;SDS011;70834;37.534;-122.308;2023-07-13T09:43:20;5.03;;;1.50;;
81382;SDS011;70834;37.534;-122.308;2023-07-13T09:45:42;4.63;;;1.40;;
81382;SDS011;70834;37.534;-122.308;2023-07-13T09:48:11;5.65;;;1.88;;
81382;SDS011;70834;37.534;-122.308;2023-07-13T09:50:34;8.45;;;1.50;;
81382;SDS011;70834;37.534;-122.308;2023-07-13T09:52:55;4.43;;;1.52;;
81382;SDS011;70834;37.534;-122.308;2023-07-13T09:57:49;7.25;;;1.35;;
81382;SDS011;70834;37.534;-122.308;2023-07-13T10:00:18;6.55;;;1.30;;
81382;SDS011;70834;37.534;-122.308;2023-07-13T10:02:46;2.45;;;1.00;;
81382;SDS011;70834;37.534;-122.308;2023-07-13T10:05:20;4.50;;;1.30;;
81382;SDS011;70834;37.534;-122.308;2023-07-13T10:07:43;4.93;;;1.35;;
81382;SDS011;70834;37.534;-122.308;2023-07-13T10:10:13;4.75;;;1.60;;
81382;SDS011;70834;37.534;-122.308;2023-07-13T10:12:37;5.93;;;1.27;;
81382;SDS011;70834;37.534;-122.308;2023-07-13T10:14:59;3.25;;;1.38;;
81382;SDS011;70834;37.534;-122.308;2023-07-13T10:17:31;5.07;;;1.33;;
81382;SDS011;70834;37.534;-122.308;2023-07-13T10:19:54;3.72;;;1.52;;
81382;SDS011;70834;37.534;-122.308;2023-07-13T10:25:21;1.92;;;0.95;;
81382;SDS011;70834;37.534;-122.308;2023-07-13T10:27:51;4.40;;;1.42;;
81382;SDS011;70834;37.534;-122.308;2023-07-13T10:30:38;4.07;;;1.40;;
81382;SDS011;70834;37.534;-122.308;2023-07-13T10:33:04;3.45;;;1.25;;
81382;SDS011;70834;37.534;-122.308;2023-07-13T10:35:31;5.22;;;1.33;;
81382;SDS011;70834;37.534;-122.308;2023-07-13T10:37:55;2.53;;;1.30;;
81382;SDS011;70834;37.534;-122.308;2023-07-13T10:40:31;3.38;;;1.40;;
81382;SDS011;70834;37.534;-122.308;2023-07-13T10:45:39;3.53;;;1.52;;
81382;SDS011;70834;37.534;-122.308;2023-07-13T10:48:01;4.95;;;1.70;;
81382;SDS011;70834;37.534;-122.308;2023-07-13T10:50:25;4.10;;;1.52;;
81382;SDS011;70834;37.534;-122.308;2023-07-13T10:52:51;4.03;;;1.95;;
81382;SDS011;70834;37.534;-122.308;2023-07-13T10:58:31;3.67;;;1.58;;
81382;SDS011;70834;37.534;-122.308;2023-07-13T11:03:34;5.03;;;1.70;;
81382;SDS011;70834;37.534;-122.308;2023-07-13T11:06:34;5.43;;;1.60;;
81382;SDS011;70834;37.534;-122.308;2023-07-13T11:08:54;5.28;;;1.55;;
81382;SDS011;70834;37.534;-122.308;2023-07-13T11:11:38;3.88;;;1.60;;
81382;SDS011;70834;37.534;-122.308;2023-07-13T11:14:00;2.85;;;1.52;;
81382;SDS011;70834;37.534;-122.308;2023-07-13T11:21:25;2.85;;;1.20;;
81382;SDS011;70834;37.534;-122.308;2023-07-13T11:23:52;3.92;;;1.30;;
81382;SDS011;70834;37.534;-122.308;2023-07-13T11:29:54;8.95;;;2.17;;
81382;SDS011;70834;37.534;-122.308;2023-07-13T11:31:58;5.05;;;1.65;;
81382;SDS011;70834;37.534;-122.308;2023-07-13T11:34:24;4.28;;;2.00;;
81382;SDS011;70834;37.534;-122.308;2023-07-13T11:36:54;6.15;;;2.00;;
81382;SDS011;70834;37.534;-122.308;2023-07-13T11:41:48;3.22;;;1.98;;
81382;SDS011;70834;37.534;-122.308;2023-07-13T11:46:35;8.23;;;2.55;;
81382;SDS011;70834;37.534;-122.308;2023-07-13T11:48:57;6.20;;;2.03;;
81382;SDS011;70834;37.534;-122.308;2023-07-13T11:51:28;4.35;;;1.73;;
81382;SDS011;70834;37.534;-122.308;2023-07-13T11:53:53;4.35;;;1.67;;
81382;SDS011;70834;37.534;-122.308;2023-07-13T11:56:15;6.65;;;1.65;;
81382;SDS011;70834;37.534;-122.308;2023-07-13T11:58:37;3.53;;;1.63;;
81382;SDS011;70834;37.534;-122.308;2023-07-13T12:01:00;5.47;;;1.83;;
81382;SDS011;70834;37.534;-122.308;2023-07-13T12:03:25;5.78;;;1.92;;
81382;SDS011;70834;37.534;-122.308;2023-07-13T12:06:00;2.90;;;1.60;;
81382;SDS011;70834;37.534;-122.308;2023-07-13T12:08:26;4.50;;;1.92;;
81382;SDS011;70834;37.534;-122.308;2023-07-13T12:10:48;4.60;;;1.45;;
81382;SDS011;70834;37.534;-122.308;2023-07-13T12:13:17;5.88;;;1.52;;
81382;SDS011;70834;37.534;-122.308;2023-07-13T12:15:40;3.60;;;1.60;;
81382;SDS011;70834;37.534;-122.308;2023-07-13T12:18:11;6.45;;;1.85;;
81382;SDS011;70834;37.534;-122.308;2023-07-13T12:20:38;2.55;;;1.20;;
81382;SDS011;70834;37.534;-122.308;2023-07-13T12:23:00;5.35;;;1.58;;
81382;SDS011;70834;37.534;-122.308;2023-07-13T12:25:28;3.80;;;1.60;;
81382;SDS011;70834;37.534;-122.308;2023-07-13T12:27:50;5.43;;;1.50;;
81382;SDS011;70834;37.534;-122.308;2023-07-13T12:30:28;3.80;;;1.33;;
81382;SDS011;70834;37.534;-122.308;2023-07-13T12:32:58;3.00;;;1.48;;
81382;SDS011;70834;37.534;-122.308;2023-07-13T12:35:29;5.70;;;1.58;;
81382;SDS011;70834;37.534;-122.308;2023-07-13T12:37:56;6.43;;;2.17;;
81382;SDS011;70834;37.534;-122.308;2023-07-13T12:40:21;3.95;;;1.60;;
81382;SDS011;70834;37.534;-122.308;2023-07-13T12:42:48;5.82;;;1.80;;
81382;SDS011;70834;37.534;-122.308;2023-07-13T12:47:40;5.35;;;1.70;;
81382;SDS011;70834;37.534;-122.308;2023-07-13T12:50:03;3.75;;;1.60;;
81382;SDS011;70834;37.534;-122.308;2023-07-13T12:52:30;4.32;;;1.80;;
81382;SDS011;70834;37.534;-122.308;2023-07-13T12:54:54;7.47;;;1.98;;
81382;SDS011;70834;37.534;-122.308;2023-07-13T12:57:17;5.65;;;1.67;;
81382;SDS011;70834;37.534;-122.308;2023-07-13T12:59:39;3.03;;;1.77;;
81382;SDS011;70834;37.534;-122.308;2023-07-13T13:02:02;5.32;;;2.10;;
81382;SDS011;70834;37.534;-122.308;2023-07-13T13:04:39;4.40;;;1.85;;
81382;SDS011;70834;37.534;-122.308;2023-07-13T13:07:03;3.00;;;1.58;;
81382;SDS011;70834;37.534;-122.308;2023-07-13T13:09:30;5.40;;;2.17;;
81382;SDS011;70834;37.534;-122.308;2023-07-13T13:11:52;5.43;;;1.85;;
81382;SDS011;70834;37.534;-122.308;2023-07-13T13:14:13;5.05;;;2.10;;
81382;SDS011;70834;37.534;-122.308;2023-07-13T13:16:35;4.18;;;2.15;;
81382;SDS011;70834;37.534;-122.308;2023-07-13T13:19:15;4.05;;;2.35;;
81382;SDS011;70834;37.534;-122.308;2023-07-13T13:21:40;4.82;;;1.92;;
81382;SDS011;70834;37.534;-122.308;2023-07-13T13:24:08;7.05;;;2.30;;
81382;SDS011;70834;37.534;-122.308;2023-07-13T13:26:33;6.13;;;2.45;;
81382;SDS011;70834;37.534;-122.308;2023-07-13T13:28:54;6.50;;;2.88;;
81382;SDS011;70834;37.534;-122.308;2023-07-13T13:31:16;6.65;;;2.65;;
81382;SDS011;70834;37.534;-122.308;2023-07-13T13:33:37;6.38;;;2.63;;
81382;SDS011;70834;37.534;-122.308;2023-07-13T13:36:03;6.57;;;2.10;;
81382;SDS011;70834;37.534;-122.308;2023-07-13T13:38:26;6.45;;;2.53;;
81382;SDS011;70834;37.534;-122.308;2023-07-13T13:40:48;6.10;;;2.33;;
81382;SDS011;70834;37.534;-122.308;2023-07-13T13:43:23;7.10;;;2.60;;
81382;SDS011;70834;37.534;-122.308;2023-07-13T13:45:46;6.07;;;2.15;;
81382;SDS011;70834;37.534;-122.308;2023-07-13T13:48:18;5.72;;;2.60;;
81382;SDS011;70834;37.534;-122.308;2023-07-13T13:50:41;7.55;;;2.67;;
81382;SDS011;70834;37.534;-122.308;2023-07-13T13:53:03;8.57;;;2.45;;
81382;SDS011;70834;37.534;-122.308;2023-07-13T13:55:24;5.80;;;2.47;;
81382;SDS011;70834;37.534;-122.308;2023-07-13T13:57:46;8.32;;;3.00;;
81382;SDS011;70834;37.534;-122.308;2023-07-13T14:00:09;8.77;;;2.45;;
81382;SDS011;70834;37.534;-122.308;2023-07-13T14:02:37;5.05;;;2.35;;
81382;SDS011;70834;37.534;-122.308;2023-07-13T14:04:59;9.88;;;2.92;;
81382;SDS011;70834;37.534;-122.308;2023-07-13T14:07:23;5.97;;;2.20;;
81382;SDS011;70834;37.534;-122.308;2023-07-13T14:09:44;6.95;;;2.28;;
81382;SDS011;70834;37.534;-122.308;2023-07-13T14:12:08;7.47;;;2.03;;
81382;SDS011;70834;37.534;-122.308;2023-07-13T14:14:32;7.85;;;2.17;;
81382;SDS011;70834;37.534;-122.308;2023-07-13T14:16:54;6.80;;;2.15;;
81382;SDS011;70834;37.534;-122.308;2023-07-13T14:19:16;5.00;;;2.00;;
81382;SDS011;70834;37.534;-122.308;2023-07-13T14:21:38;8.48;;;2.15;;
81382;SDS011;70834;37.534;-122.308;2023-07-13T14:23:59;7.53;;;1.90;;
81382;SDS011;70834;37.534;-122.308;2023-07-13T14:26:22;5.30;;;2.00;;
81382;SDS011;70834;37.534;-122.308;2023-07-13T14:28:48;4.10;;;1.77;;
81382;SDS011;70834;37.534;-122.308;2023-07-13T14:31:13;6.03;;;2.13;;
81382;SDS011;70834;37.534;-122.308;2023-07-13T14:33:36;10.02;;;2.90;;
81382;SDS011;70834;37.534;-122.308;2023-07-13T14:36:21;7.25;;;2.45;;